Time;durP1;ratioP1;P1;durP2;ratioP2;P2;SDS_P1;SDS_P2;PMS_P1;PMS_P2;Temp;Humidity;BMP_temperature;BMP_pressure;BME280_temperature;BME280_humidity;BME280_pressure;Samples;Min_cycle;Max_cycle;Signal;HPM_P1;HPM_P2
2022/09/19 00:20:04;;;;;;;0.37;0.37;;;;;;;;;;5169153;27;20133;-65
2022/09/19 00:22:32;;;;;;;1.07;0.70;;;;;;;;;;5139817;27;20111;-66
2022/09/19 00:24:59;;;;;;;1.40;0.87;;;;;;;;;;5045672;28;2111478;-66
2022/09/19 00:27:27;;;;;;;0.70;0.60;;;;;;;;;;5103729;28;20027;-67
2022/09/19 00:29:54;;;;;;;0.80;0.77;;;;;;;;;;5104034;28;20028;-66
2022/09/19 00:32:22;;;;;;;0.70;0.60;;;;;;;;;;5109251;28;20063;-66
2022/09/19 00:34:49;;;;;;;0.77;0.63;;;;;;;;;;5107509;28;20467;-67
2022/09/19 00:37:20;;;;;;;0.80;0.63;;;;;;;;;;5108982;28;20030;-66
2022/09/19 00:39:46;;;;;;;0.80;0.63;;;;;;;;;;5109319;28;20051;-66
2022/09/19 00:42:21;;;;;;;3.17;1.53;;;;;;;;;;5100404;28;20020;-67
2022/09/19 00:44:52;;;;;;;1.63;1.23;;;;;;;;;;5083588;28;20028;-66
2022/09/19 00:47:24;;;;;;;1.03;0.77;;;;;;;;;;5084139;28;20496;-66
2022/09/19 00:49:54;;;;;;;0.90;0.70;;;;;;;;;;5084509;28;20024;-66
2022/09/19 00:52:35;;;;;;;1.30;0.83;;;;;;;;;;5084904;28;20111;-66
2022/09/19 00:55:02;;;;;;;1.07;0.80;;;;;;;;;;5109273;28;20069;-66
2022/09/19 00:57:36;;;;;;;1.50;1.07;;;;;;;;;;5108502;28;20038;-66
2022/09/19 01:00:04;;;;;;;1.47;1.13;;;;;;;;;;5103186;28;20024;-66
2022/09/19 01:02:32;;;;;;;0.93;0.73;;;;;;;;;;5088835;28;20028;-66
2022/09/19 01:04:59;;;;;;;1.10;0.60;;;;;;;;;;5091172;28;20419;-66
2022/09/19 01:07:41;;;;;;;1.03;0.57;;;;;;;;;;5101658;28;20466;-67
2022/09/19 01:10:26;;;;;;;0.97;0.80;;;;;;;;;;5093123;28;20042;-67
2022/09/19 01:13:04;;;;;;;0.93;0.53;;;;;;;;;;5086444;28;20020;-66
2022/09/19 01:15:36;;;;;;;1.37;0.73;;;;;;;;;;5104388;28;20020;-67
2022/09/19 01:18:04;;;;;;;0.30;0.30;;;;;;;;;;5108644;28;20024;-67
2022/09/19 01:20:46;;;;;;;1.17;1.00;;;;;;;;;;5098515;28;20032;-67
2022/09/19 01:23:25;;;;;;;2.97;1.03;;;;;;;;;;5094738;28;20041;-67
2022/09/19 01:26:10;;;;;;;2.20;1.03;;;;;;;;;;5080941;28;20028;-67
2022/09/19 01:28:39;;;;;;;2.42;1.10;;;;;;;;;;5069484;28;20036;-66
2022/09/19 01:31:27;;;;;;;0.90;0.70;;;;;;;;;;5069382;28;20028;-67
2022/09/19 01:34:01;;;;;;;0.93;0.70;;;;;;;;;;5083125;28;20490;-67
2022/09/19 01:36:30;;;;;;;4.83;1.00;;;;;;;;;;5070960;28;20029;-67
2022/09/19 01:38:57;;;;;;;0.97;0.73;;;;;;;;;;5079755;28;20031;-67
2022/09/19 01:41:24;;;;;;;0.40;0.40;;;;;;;;;;5085558;28;20467;-68
2022/09/19 01:43:50;;;;;;;0.77;0.60;;;;;;;;;;5086848;28;20027;-67
2022/09/19 01:46:38;;;;;;;0.40;0.40;;;;;;;;;;5086605;28;20374;-69
2022/09/19 01:49:24;;;;;;;1.07;0.60;;;;;;;;;;5088922;28;20474;-68
2022/09/19 01:51:56;;;;;;;0.97;0.80;;;;;;;;;;5071992;28;20039;-67
2022/09/19 01:54:25;;;;;;;0.40;0.40;;;;;;;;;;5086005;28;20024;-67
2022/09/19 01:57:00;;;;;;;0.40;0.40;;;;;;;;;;5090280;28;20024;-67
2022/09/19 01:59:27;;;;;;;;;;;;;;;;;;5101746;28;20098;-68
2022/09/19 02:01:56;;;;;;;1.63;0.80;;;;;;;;;;5087905;28;19958;-68
2022/09/19 02:04:34;;;;;;;0.90;0.57;;;;;;;;;;5084538;28;20020;-67
2022/09/19 02:07:13;;;;;;;2.80;0.90;;;;;;;;;;5094357;28;20365;-67
2022/09/19 02:10:03;;;;;;;1.53;1.00;;;;;;;;;;5081437;28;20036;-68
2022/09/19 02:12:32;;;;;;;1.40;1.00;;;;;;;;;;5105806;28;20028;-67
2022/09/19 02:15:00;;;;;;;1.47;1.00;;;;;;;;;;5109383;28;20069;-67
2022/09/19 02:17:33;;;;;;;0.77;0.60;;;;;;;;;;5102625;28;20069;-68
2022/09/19 02:20:12;;;;;;;1.10;0.50;;;;;;;;;;5088951;28;20109;-67
2022/09/19 02:22:43;;;;;;;2.07;0.53;;;;;;;;;;5071926;28;20025;-67
2022/09/19 02:25:14;;;;;;;0.60;0.53;;;;;;;;;;5074587;28;20534;-67
2022/09/19 02:27:51;;;;;;;1.50;0.90;;;;;;;;;;5090224;28;20032;-67
2022/09/19 02:30:21;;;;;;;0.50;0.50;;;;;;;;;;5088490;28;20023;-67
2022/09/19 02:32:49;;;;;;;0.77;0.63;;;;;;;;;;5092664;28;20482;-67
2022/09/19 02:35:34;;;;;;;1.10;0.97;;;;;;;;;;5075550;28;20021;-67
2022/09/19 02:38:08;;;;;;;2.42;1.42;;;;;;;;;;5075365;28;20020;-67
2022/09/19 02:40:52;;;;;;;1.70;0.97;;;;;;;;;;5080155;28;20348;-67
2022/09/19 02:43:32;;;;;;;1.42;1.02;;;;;;;;;;5067757;28;20028;-67
2022/09/19 02:46:04;;;;;;;1.13;0.80;;;;;;;;;;5074904;28;20024;-68
2022/09/19 02:48:33;;;;;;;1.47;0.90;;;;;;;;;;5078875;28;20036;-67
2022/09/19 02:51:06;;;;;;;2.10;1.20;;;;;;;;;;5082144;28;20026;-67
2022/09/19 02:53:42;;;;;;;3.87;1.40;;;;;;;;;;5092849;28;20028;-67
2022/09/19 02:56:13;;;;;;;2.17;1.27;;;;;;;;;;5091972;28;20381;-67
2022/09/19 02:59:06;;;;;;;4.93;1.50;;;;;;;;;;5084256;28;20027;-68
2022/09/19 03:01:33;;;;;;;0.97;0.87;;;;;;;;;;5075021;28;20121;-67
2022/09/19 03:04:12;;;;;;;1.40;0.97;;;;;;;;;;5076839;28;20024;-67
2022/09/19 03:06:44;;;;;;;1.93;1.13;;;;;;;;;;5070947;28;20406;-67
2022/09/19 03:09:12;;;;;;;0.60;0.60;;;;;;;;;;5072779;28;20035;-66
2022/09/19 03:11:41;;;;;;;4.57;1.10;;;;;;;;;;5073548;28;20498;-67
2022/09/19 03:14:09;;;;;;;4.60;1.50;;;;;;;;;;5073072;28;20028;-68
2022/09/19 03:16:39;;;;;;;1.50;0.73;;;;;;;;;;5082706;28;20467;-67
2022/09/19 03:19:07;;;;;;;1.43;0.83;;;;;;;;;;5079278;28;20012;-67
2022/09/19 03:21:34;;;;;;;1.23;0.90;;;;;;;;;;5087449;28;20028;-67
2022/09/19 03:24:00;;;;;;;1.77;0.97;;;;;;;;;;5083785;28;20024;-67
2022/09/19 03:26:34;;;;;;;0.73;0.53;;;;;;;;;;5066949;28;20123;-65
2022/09/19 03:29:03;;;;;;;1.17;0.90;;;;;;;;;;5069611;28;20033;-69
2022/09/19 03:31:30;;;;;;;2.20;1.00;;;;;;;;;;5072593;28;20099;-68
2022/09/19 03:33:57;;;;;;;1.67;1.40;;;;;;;;;;5083790;28;20025;-68
2022/09/19 03:36:25;;;;;;;1.30;1.07;;;;;;;;;;5072464;28;20032;-69
2022/09/19 03:38:52;;;;;;;1.40;1.10;;;;;;;;;;5072304;28;20052;-65
2022/09/19 03:41:21;;;;;;;1.97;1.43;;;;;;;;;;5069226;28;20564;-67
2022/09/19 03:43:48;;;;;;;4.47;1.83;;;;;;;;;;5075987;28;20021;-64
2022/09/19 03:46:17;;;;;;;2.13;1.23;;;;;;;;;;5066973;28;20029;-65
2022/09/19 03:48:45;;;;;;;1.33;1.10;;;;;;;;;;5072120;28;20474;-65
2022/09/19 03:51:13;;;;;;;2.47;0.93;;;;;;;;;;5079654;28;20482;-66
2022/09/19 03:53:41;;;;;;;2.33;1.37;;;;;;;;;;5072202;28;20363;-66
2022/09/19 03:56:09;;;;;;;2.30;1.50;;;;;;;;;;5087077;28;20056;-65
2022/09/19 03:58:36;;;;;;;2.10;1.80;;;;;;;;;;5081786;28;20024;-65
2022/09/19 04:01:06;;;;;;;2.30;1.30;;;;;;;;;;5092208;28;20016;-66
2022/09/19 04:03:35;;;;;;;6.13;1.50;;;;;;;;;;5089413;28;20028;-67
2022/09/19 04:06:03;;;;;;;2.70;1.90;;;;;;;;;;5073851;28;20475;-68
2022/09/19 04:08:34;;;;;;;1.87;1.37;;;;;;;;;;5068084;28;20090;-68
2022/09/19 04:11:01;;;;;;;2.13;1.43;;;;;;;;;;5086628;28;20100;-68
2022/09/19 04:13:29;;;;;;;1.97;1.40;;;;;;;;;;5070835;28;20512;-68
2022/09/19 04:15:57;;;;;;;1.43;1.23;;;;;;;;;;5092000;28;20466;-68
2022/09/19 04:18:23;;;;;;;1.80;1.30;;;;;;;;;;5090947;28;20381;-67
2022/09/19 04:20:51;;;;;;;4.47;2.47;;;;;;;;;;5071991;28;20424;-67
2022/09/19 04:23:18;;;;;;;2.50;1.37;;;;;;;;;;5079750;28;20032;-67
2022/09/19 04:25:46;;;;;;;4.67;2.03;;;;;;;;;;5088813;28;20040;-67
2022/09/19 04:28:14;;;;;;;2.77;2.10;;;;;;;;;;5086486;28;20036;-64
2022/09/19 04:30:41;;;;;;;2.13;1.50;;;;;;;;;;5066982;28;21429;-65
2022/09/19 04:33:10;;;;;;;5.53;3.43;;;;;;;;;;5067627;28;20021;-64
2022/09/19 04:35:37;;;;;;;5.70;3.27;;;;;;;;;;5068560;28;20029;-65
2022/09/19 04:38:06;;;;;;;3.90;2.70;;;;;;;;;;5071680;28;20107;-65
2022/09/19 04:40:44;;;;;;;4.13;2.37;;;;;;;;;;5088957;28;20028;-66
2022/09/19 04:43:12;;;;;;;4.07;2.10;;;;;;;;;;5091659;28;20031;-66
2022/09/19 04:45:42;;;;;;;2.63;1.90;;;;;;;;;;5092023;28;20025;-66
2022/09/19 04:48:09;;;;;;;1.37;1.13;;;;;;;;;;5088851;28;20501;-66
2022/09/19 04:50:37;;;;;;;2.40;1.50;;;;;;;;;;5068193;28;20035;-66
2022/09/19 04:53:05;;;;;;;2.33;1.83;;;;;;;;;;5070225;28;20024;-66
2022/09/19 04:55:35;;;;;;;1.17;0.93;;;;;;;;;;5088371;28;20031;-66
2022/09/19 04:58:02;;;;;;;2.07;1.23;;;;;;;;;;5083710;28;20048;-65
2022/09/19 05:00:38;;;;;;;1.97;1.57;;;;;;;;;;5092005;28;20035;-65
2022/09/19 05:03:09;;;;;;;6.20;1.50;;;;;;;;;;5095334;28;20035;-66
2022/09/19 05:05:37;;;;;;;2.17;1.60;;;;;;;;;;5094357;28;20466;-66
2022/09/19 05:08:04;;;;;;;3.93;1.67;;;;;;;;;;5078767;28;20024;-66
2022/09/19 05:10:34;;;;;;;8.27;2.00;;;;;;;;;;5089058;28;20043;-66
2022/09/19 05:13:01;;;;;;;2.10;1.57;;;;;;;;;;5088282;28;20028;-65
2022/09/19 05:15:28;;;;;;;2.00;1.57;;;;;;;;;;5089530;28;20024;-66
2022/09/19 05:17:55;;;;;;;2.30;1.37;;;;;;;;;;5089818;28;20020;-65
2022/09/19 05:20:26;;;;;;;2.37;1.27;;;;;;;;;;5076247;28;20375;-66
2022/09/19 05:22:58;;;;;;;1.43;1.13;;;;;;;;;;5094714;28;20030;-66
2022/09/19 05:25:29;;;;;;;2.17;1.67;;;;;;;;;;5087508;28;20032;-65
2022/09/19 05:28:06;;;;;;;4.70;1.83;;;;;;;;;;5074778;28;20051;-65
2022/09/19 05:30:34;;;;;;;1.57;1.37;;;;;;;;;;5090885;28;20032;-65
2022/09/19 05:33:01;;;;;;;2.03;1.23;;;;;;;;;;5085318;28;20025;-65
2022/09/19 05:35:28;;;;;;;2.20;1.50;;;;;;;;;;5069343;28;20504;-64
2022/09/19 05:37:57;;;;;;;4.87;1.67;;;;;;;;;;5069429;28;20067;-64
2022/09/19 05:40:27;;;;;;;1.73;1.43;;;;;;;;;;5084673;28;20032;-65
2022/09/19 05:42:59;;;;;;;1.63;1.27;;;;;;;;;;5077484;28;20035;-65
2022/09/19 05:45:27;;;;;;;1.57;1.30;;;;;;;;;;5094585;28;20024;-65
2022/09/19 05:47:59;;;;;;;1.50;1.17;;;;;;;;;;5094515;28;20032;-64
2022/09/19 05:50:26;;;;;;;2.00;1.50;;;;;;;;;;5079033;28;20028;-65
2022/09/19 05:55:38;;;;;;;;;;;;;;;;;;5080959;28;20123;-66
2022/09/19 05:58:06;;;;;;;4.70;2.07;;;;;;;;;;5088960;28;19937;-65
2022/09/19 06:00:37;;;;;;;6.47;2.40;;;;;;;;;;5072873;28;20036;-65
2022/09/19 06:03:06;;;;;;;5.13;2.47;;;;;;;;;;5071615;28;20097;-65
2022/09/19 06:05:39;;;;;;;3.60;2.10;;;;;;;;;;5092521;28;20020;-65
2022/09/19 06:08:08;;;;;;;2.43;2.00;;;;;;;;;;5091821;28;20067;-66
2022/09/19 06:10:40;;;;;;;3.67;1.83;;;;;;;;;;5078653;28;20051;-65
2022/09/19 06:13:07;;;;;;;1.67;1.20;;;;;;;;;;5094132;28;20080;-64
2022/09/19 06:15:35;;;;;;;3.00;1.97;;;;;;;;;;5094439;28;20020;-64
2022/09/19 06:18:01;;;;;;;3.20;1.73;;;;;;;;;;5089526;28;20056;-65
2022/09/19 06:20:29;;;;;;;2.77;1.93;;;;;;;;;;5074014;28;20665;-65
2022/09/19 06:23:00;;;;;;;3.10;2.03;;;;;;;;;;5068535;28;20042;-65
2022/09/19 06:25:28;;;;;;;5.33;1.97;;;;;;;;;;5068336;28;20025;-65
2022/09/19 06:28:02;;;;;;;2.33;1.67;;;;;;;;;;5085824;28;20040;-64
2022/09/19 06:30:29;;;;;;;3.50;1.27;;;;;;;;;;5079513;28;20119;-65
2022/09/19 06:32:56;;;;;;;9.13;0.93;;;;;;;;;;5073687;28;20020;-64
2022/09/19 06:35:30;;;;;;;2.37;1.10;;;;;;;;;;5073482;28;20024;-65
2022/09/19 06:38:01;;;;;;;1.35;1.15;;;;;;;;;;5074738;28;20025;-64
2022/09/19 06:40:29;;;;;;;1.43;0.97;;;;;;;;;;5081919;28;20032;-65
2022/09/19 06:43:05;;;;;;;2.50;1.50;;;;;;;;;;5088081;28;20024;-64
2022/09/19 06:45:36;;;;;;;1.30;0.90;;;;;;;;;;5088326;28;20107;-65
2022/09/19 06:48:07;;;;;;;1.67;1.17;;;;;;;;;;5087820;28;20093;-65
2022/09/19 06:50:37;;;;;;;0.80;0.57;;;;;;;;;;5077838;28;20082;-65
2022/09/19 06:53:04;;;;;;;0.83;0.57;;;;;;;;;;5073104;28;20113;-64
2022/09/19 06:55:31;;;;;;;1.27;0.90;;;;;;;;;;5079635;28;20074;-64
2022/09/19 06:57:59;;;;;;;0.93;0.80;;;;;;;;;;5079622;28;20108;-65
2022/09/19 07:00:26;;;;;;;0.90;0.70;;;;;;;;;;5087062;28;20028;-65
2022/09/19 07:02:59;;;;;;;0.93;0.70;;;;;;;;;;5071051;28;20119;-66
2022/09/19 07:05:27;;;;;;;1.17;0.50;;;;;;;;;;5083779;28;20143;-65
2022/09/19 07:07:54;;;;;;;0.80;0.60;;;;;;;;;;5087413;28;20433;-65
2022/09/19 07:10:20;;;;;;;0.43;0.33;;;;;;;;;;5079417;28;20509;-65
2022/09/19 07:13:03;;;;;;;0.70;0.50;;;;;;;;;;5091686;28;20418;-64
2022/09/19 07:15:34;;;;;;;0.87;0.37;;;;;;;;;;5093358;28;20051;-65
2022/09/19 07:18:01;;;;;;;1.10;0.57;;;;;;;;;;5084439;28;20017;-65
2022/09/19 07:20:28;;;;;;;0.20;0.20;;;;;;;;;;5073076;28;20452;-65
2022/09/19 07:23:05;;;;;;;0.60;0.43;;;;;;;;;;5072707;28;20047;-65
2022/09/19 07:25:33;;;;;;;0.67;0.50;;;;;;;;;;5067166;28;20028;-65
2022/09/19 07:28:01;;;;;;;0.20;0.10;;;;;;;;;;5074224;28;20036;-65
2022/09/19 07:30:28;;;;;;;0.43;0.30;;;;;;;;;;5076306;28;20037;-65
2022/09/19 07:32:58;;;;;;;0.63;0.60;;;;;;;;;;5066979;28;20031;-65
2022/09/19 07:35:29;;;;;;;1.53;0.70;;;;;;;;;;5072349;28;20057;-65
2022/09/19 07:37:56;;;;;;;0.70;0.70;;;;;;;;;;5078775;28;20024;-65
2022/09/19 07:40:23;;;;;;;1.63;0.60;;;;;;;;;;5092051;28;20020;-65
2022/09/19 07:42:53;;;;;;;1.00;0.70;;;;;;;;;;5076490;28;20426;-65
2022/09/19 07:45:20;;;;;;;0.53;0.47;;;;;;;;;;5092647;28;20022;-65
2022/09/19 07:47:48;;;;;;;0.57;0.53;;;;;;;;;;5086509;28;20020;-65
2022/09/19 07:50:19;;;;;;;0.20;0.20;;;;;;;;;;5087036;28;20028;-65
2022/09/19 07:52:46;;;;;;;3.20;1.00;;;;;;;;;;5083656;28;20103;-65
2022/09/19 07:55:14;;;;;;;0.60;0.37;;;;;;;;;;5087143;28;20466;-65
2022/09/19 07:57:51;;;;;;;0.40;0.33;;;;;;;;;;5086629;28;20024;-65
2022/09/19 08:00:18;;;;;;;0.57;0.43;;;;;;;;;;5072068;28;20122;-66
2022/09/19 08:02:45;;;;;;;1.40;0.73;;;;;;;;;;5082628;28;20061;-65
2022/09/19 08:05:12;;;;;;;0.10;0.10;;;;;;;;;;5072168;28;20020;-65
2022/09/19 08:07:38;;;;;;;0.20;0.20;;;;;;;;;;5077680;28;20073;-65
2022/09/19 08:10:06;;;;;;;0.10;0.10;;;;;;;;;;5068222;28;20029;-65
2022/09/19 08:12:33;;;;;;;1.50;0.60;;;;;;;;;;5083526;28;20028;-65
2022/09/19 08:15:01;;;;;;;0.13;0.13;;;;;;;;;;5066760;28;20028;-65
2022/09/19 08:17:28;;;;;;;0.40;0.40;;;;;;;;;;5066637;28;20103;-65
2022/09/19 08:19:55;;;;;;;3.03;0.57;;;;;;;;;;5071621;28;20109;-65
2022/09/19 08:22:22;;;;;;;0.50;0.50;;;;;;;;;;5072926;28;20039;-65
2022/09/19 08:24:49;;;;;;;0.33;0.30;;;;;;;;;;5090866;28;20089;-65
2022/09/19 08:27:16;;;;;;;0.27;0.27;;;;;;;;;;5091487;28;20038;-65
2022/09/19 08:29:43;;;;;;;0.33;0.27;;;;;;;;;;5089233;28;20037;-65
2022/09/19 08:32:10;;;;;;;0.10;0.10;;;;;;;;;;5076763;28;20020;-65
2022/09/19 08:34:37;;;;;;;2.00;0.73;;;;;;;;;;5073025;28;20056;-65
2022/09/19 08:37:05;;;;;;;0.50;0.40;;;;;;;;;;5070529;28;20023;-66
2022/09/19 08:39:31;;;;;;;0.50;0.40;;;;;;;;;;5071798;28;20475;-65
2022/09/19 08:42:11;;;;;;;0.10;0.10;;;;;;;;;;5091958;28;20024;-65
2022/09/19 08:44:48;;;;;;;1.03;0.57;;;;;;;;;;5095719;28;20043;-65
2022/09/19 08:47:21;;;;;;;0.20;0.20;;;;;;;;;;5095627;28;20107;-65
2022/09/19 08:49:55;;;;;;;1.47;0.40;;;;;;;;;;5092583;28;20046;-65
2022/09/19 08:52:37;;;;;;;0.75;0.35;;;;;;;;;;5075602;28;20052;-65
2022/09/19 08:55:06;;;;;;;0.20;0.20;;;;;;;;;;5076499;28;20023;-65
2022/09/19 08:57:39;;;;;;;0.10;0.10;;;;;;;;;;5090003;28;20043;-65
2022/09/19 09:00:07;;;;;;;0.30;0.30;;;;;;;;;;5090307;28;20024;-65
2022/09/19 09:02:35;;;;;;;0.57;0.30;;;;;;;;;;5088782;28;20035;-65
2022/09/19 09:05:04;;;;;;;0.20;0.20;;;;;;;;;;5083851;28;20020;-65
2022/09/19 09:07:42;;;;;;;0.40;0.40;;;;;;;;;;5095192;28;20024;-65
2022/09/19 09:10:35;;;;;;;8.33;0.43;;;;;;;;;;5076322;28;20028;-65
2022/09/19 09:13:07;;;;;;;0.30;0.30;;;;;;;;;;5044501;28;20111;-65
2022/09/19 09:15:50;;;;;;;0.37;0.33;;;;;;;;;;5081533;28;20036;-64
2022/09/19 09:18:35;;;;;;;0.83;0.40;;;;;;;;;;5089337;28;20129;-66
2022/09/19 09:21:17;;;;;;;0.40;0.40;;;;;;;;;;5090305;28;20016;-65
2022/09/19 09:23:46;;;;;;;0.27;0.27;;;;;;;;;;5089662;28;20024;-65
2022/09/19 09:26:27;;;;;;;1.93;0.90;;;;;;;;;;5078579;28;20032;-65
2022/09/19 09:29:11;;;;;;;2.00;1.23;;;;;;;;;;5074812;28;20048;-65
2022/09/19 09:31:46;;;;;;;0.20;0.20;;;;;;;;;;5093377;28;20371;-65
2022/09/19 09:34:18;;;;;;;4.32;0.52;;;;;;;;;;5088005;28;20027;-65
2022/09/19 09:37:21;;;;;;;0.40;0.30;;;;;;;;;;5092782;28;20504;-65
2022/09/19 09:39:59;;;;;;;0.30;0.23;;;;;;;;;;5032098;28;20024;-65
2022/09/19 09:42:32;;;;;;;1.33;0.43;;;;;;;;;;5068826;28;20017;-65
2022/09/19 09:45:27;;;;;;;0.50;0.47;;;;;;;;;;5072556;28;20020;-65
2022/09/19 09:47:54;;;;;;;0.50;0.50;;;;;;;;;;5041062;28;20454;-64
2022/09/19 09:50:34;;;;;;;0.20;0.20;;;;;;;;;;5090832;28;20111;-64
2022/09/19 09:53:05;;;;;;;2.47;0.70;;;;;;;;;;5094179;28;20022;-64
2022/09/19 09:58:52;;;;;;;0.20;0.13;;;;;;;;;;5076975;28;20044;-65
2022/09/19 10:04:32;;;;;;;0.43;0.30;;;;;;;;;;5073353;28;20035;-65
2022/09/19 10:07:15;;;;;;;2.97;0.47;;;;;;;;;;5073954;28;20356;-65
2022/09/19 10:09:49;;;;;;;2.57;0.87;;;;;;;;;;5074400;28;20036;-64
2022/09/19 10:12:18;;;;;;;0.50;0.40;;;;;;;;;;5074183;28;20074;-64
2022/09/19 10:14:47;;;;;;;0.60;0.43;;;;;;;;;;5074273;28;20048;-65
2022/09/19 10:17:15;;;;;;;0.17;0.17;;;;;;;;;;5094022;28;20027;-65
2022/09/19 10:19:43;;;;;;;0.40;0.30;;;;;;;;;;5094139;28;20382;-65
2022/09/19 10:22:14;;;;;;;0.63;0.40;;;;;;;;;;5092304;28;20039;-65
2022/09/19 10:24:55;;;;;;;0.20;0.20;;;;;;;;;;5087320;28;20047;-66
2022/09/19 10:27:26;;;;;;;0.50;0.30;;;;;;;;;;5068591;28;20566;-65
2022/09/19 10:29:59;;;;;;;0.90;0.47;;;;;;;;;;5068398;28;20063;-66
2022/09/19 10:32:38;;;;;;;4.77;0.60;;;;;;;;;;5070859;28;20024;-66
2022/09/19 10:35:20;;;;;;;0.77;0.40;;;;;;;;;;5090650;28;20020;-66
2022/09/19 10:37:50;;;;;;;0.67;0.43;;;;;;;;;;5073746;28;20463;-66
2022/09/19 10:40:17;;;;;;;0.80;0.60;;;;;;;;;;5080904;28;20020;-65
2022/09/19 10:42:44;;;;;;;0.67;0.50;;;;;;;;;;5092957;28;20030;-65
2022/09/19 10:45:17;;;;;;;0.57;0.43;;;;;;;;;;5090211;28;20431;-65
2022/09/19 10:47:48;;;;;;;0.53;0.40;;;;;;;;;;5087923;28;20020;-66
2022/09/19 10:50:18;;;;;;;1.63;0.80;;;;;;;;;;5088168;28;20048;-65
2022/09/19 10:52:46;;;;;;;0.47;0.30;;;;;;;;;;5067881;28;20024;-64
2022/09/19 10:55:14;;;;;;;2.07;1.13;;;;;;;;;;5078276;28;20024;-65
2022/09/19 10:57:49;;;;;;;0.40;0.40;;;;;;;;;;5089817;28;20051;-65
2022/09/19 11:00:16;;;;;;;;;;;;;;;;;;5073578;28;20027;-64
2022/09/19 11:02:43;;;;;;;1.67;1.17;;;;;;;;;;5089616;28;19926;-65
2022/09/19 11:05:23;;;;;;;1.63;1.20;;;;;;;;;;5074689;28;20017;-65
2022/09/19 11:07:54;;;;;;;3.23;0.97;;;;;;;;;;5068334;28;20020;-65
2022/09/19 11:10:37;;;;;;;2.37;1.43;;;;;;;;;;5069824;28;20159;-65
2022/09/19 11:13:14;;;;;;;1.70;1.33;;;;;;;;;;5067352;28;20059;-65
2022/09/19 11:15:51;;;;;;;1.13;0.90;;;;;;;;;;5067396;28;20021;-64
2022/09/19 11:18:26;;;;;;;6.80;2.00;;;;;;;;;;5073311;28;20025;-64
2022/09/19 11:21:05;;;;;;;1.98;1.45;;;;;;;;;;5075131;28;20016;-64
2022/09/19 11:23:56;;;;;;;4.53;1.50;;;;;;;;;;5092586;28;20019;-64
2022/09/19 11:26:23;;;;;;;1.27;0.93;;;;;;;;;;5092987;28;20498;-64
2022/09/19 11:29:09;;;;;;;0.83;0.67;;;;;;;;;;5091076;28;20028;-65
2022/09/19 11:31:46;;;;;;;2.90;1.40;;;;;;;;;;5076591;28;20028;-64
2022/09/19 11:34:47;;;;;;;1.10;0.90;;;;;;;;;;5087054;28;20024;-64
2022/09/19 11:37:32;;;;;;;1.83;0.63;;;;;;;;;;4984613;28;20033;-63
2022/09/19 11:40:01;;;;;;;0.70;0.65;;;;;;;;;;5064885;28;20140;-64
2022/09/19 11:42:27;;;;;;;0.30;0.30;;;;;;;;;;5083016;28;20040;-64
2022/09/19 11:45:04;;;;;;;1.10;0.80;;;;;;;;;;5092474;28;20450;-64
2022/09/19 11:47:34;;;;;;;1.77;0.90;;;;;;;;;;5091213;28;20028;-64
2022/09/19 11:50:37;;;;;;;0.30;0.30;;;;;;;;;;5054252;28;20481;-64
2022/09/19 11:53:22;;;;;;;37.70;3.17;;;;;;;;;;5037578;28;20031;-64
2022/09/19 11:55:48;;;;;;;;;;;;;;;;;;5087569;28;20654;-64
2022/09/19 11:58:33;;;;;;;0.50;0.43;;;;;;;;;;5079582;28;19970;-65
2022/09/19 12:01:05;;;;;;;0.65;0.47;;;;;;;;;;5069963;28;20024;-64
2022/09/19 12:03:41;;;;;;;1.67;0.83;;;;;;;;;;5085580;28;20119;-64
2022/09/19 12:06:08;;;;;;;2.57;1.80;;;;;;;;;;5072219;28;20037;-64
2022/09/19 12:08:43;;;;;;;1.93;1.63;;;;;;;;;;5071956;28;20036;-64
2022/09/19 12:11:13;;;;;;;4.00;2.83;;;;;;;;;;5074973;28;20035;-64
2022/09/19 12:13:53;;;;;;;1.77;1.23;;;;;;;;;;5082966;28;20035;-64
2022/09/19 12:16:29;;;;;;;6.43;2.23;;;;;;;;;;5070670;28;20039;-65
2022/09/19 12:19:01;;;;;;;0.93;0.80;;;;;;;;;;5086460;28;20024;-65
2022/09/19 12:21:33;;;;;;;0.50;0.50;;;;;;;;;;5081496;28;20484;-65
2022/09/19 12:26:49;;;;;;;1.53;0.93;;;;;;;;;;5072023;28;20552;-64
2022/09/19 12:29:48;;;;;;;1.27;0.77;;;;;;;;;;5071611;28;20124;-64
2022/09/19 12:32:19;;;;;;;0.87;0.57;;;;;;;;;;5067404;28;20032;-64
2022/09/19 12:34:53;;;;;;;0.93;0.77;;;;;;;;;;5072226;28;20033;-64
2022/09/19 12:37:25;;;;;;;2.15;0.98;;;;;;;;;;5066952;28;20021;-64
2022/09/19 12:39:57;;;;;;;1.40;1.00;;;;;;;;;;5066487;28;20083;-65
2022/09/19 12:42:34;;;;;;;1.33;0.73;;;;;;;;;;5078708;28;20035;-65
2022/09/19 12:45:13;;;;;;;1.17;0.90;;;;;;;;;;5085092;28;20020;-65
2022/09/19 12:48:00;;;;;;;1.80;1.33;;;;;;;;;;5071710;28;20085;-64
2022/09/19 12:50:36;;;;;;;0.77;0.57;;;;;;;;;;5072011;28;20567;-64
2022/09/19 12:53:38;;;;;;;1.27;1.07;;;;;;;;;;5083885;28;20021;-63
2022/09/19 12:56:15;;;;;;;1.90;1.50;;;;;;;;;;5003964;28;20029;-63
2022/09/19 12:59:09;;;;;;;2.13;1.53;;;;;;;;;;5064853;28;20086;-64
2022/09/19 13:01:40;;;;;;;1.40;1.20;;;;;;;;;;5066004;28;20032;-65
2022/09/19 13:04:12;;;;;;;2.13;0.80;;;;;;;;;;5075218;28;20054;-64
2022/09/19 13:06:41;;;;;;;3.20;1.90;;;;;;;;;;5086153;28;20391;-63
2022/09/19 13:09:19;;;;;;;2.30;1.37;;;;;;;;;;5075409;28;20036;-64
2022/09/19 13:11:50;;;;;;;0.93;0.77;;;;;;;;;;5071614;28;20145;-64
2022/09/19 13:14:30;;;;;;;1.73;1.03;;;;;;;;;;5071345;28;20442;-64
2022/09/19 13:25:36;;;;;;;0.50;0.50;;;;;;;;;;5079159;28;20117;-64
2022/09/19 13:28:21;;;;;;;0.53;0.43;;;;;;;;;;5069452;28;20025;-64
2022/09/19 13:30:48;;;;;;;1.33;1.02;;;;;;;;;;5081766;28;20048;-64
2022/09/19 13:33:38;;;;;;;2.60;1.60;;;;;;;;;;5094249;28;20036;-63
2022/09/19 13:36:10;;;;;;;0.70;0.70;;;;;;;;;;5067933;28;20443;-64
2022/09/19 13:38:47;;;;;;;0.63;0.63;;;;;;;;;;5075564;28;20024;-64
2022/09/19 13:41:18;;;;;;;1.57;0.80;;;;;;;;;;5082010;28;20030;-64
2022/09/19 13:43:56;;;;;;;1.10;1.00;;;;;;;;;;5089767;28;20028;-64
2022/09/19 13:46:27;;;;;;;1.30;0.97;;;;;;;;;;5072497;28;20533;-65
2022/09/19 13:48:59;;;;;;;0.60;0.60;;;;;;;;;;5085945;28;20032;-64
2022/09/19 13:51:39;;;;;;;0.83;0.63;;;;;;;;;;5089123;28;20420;-64
2022/09/19 13:54:29;;;;;;;0.47;0.47;;;;;;;;;;5088145;28;20016;-64
2022/09/19 13:57:02;;;;;;;0.27;0.27;;;;;;;;;;5107431;28;20015;-64
2022/09/19 13:59:37;;;;;;;1.40;1.00;;;;;;;;;;5111029;28;20016;-64
2022/09/19 14:02:06;;;;;;;1.25;1.05;;;;;;;;;;5094655;28;20030;-64
2022/09/19 14:04:56;;;;;;;0.80;0.50;;;;;;;;;;5093455;28;20040;-64
2022/09/19 14:07:26;;;;;;;0.60;0.60;;;;;;;;;;5088806;28;20024;-64
2022/09/19 14:10:01;;;;;;;3.83;0.93;;;;;;;;;;5072803;28;20028;-65
2022/09/19 14:12:38;;;;;;;1.17;0.80;;;;;;;;;;5088998;28;20032;-65
2022/09/19 14:15:25;;;;;;;0.53;0.50;;;;;;;;;;5085326;28;20024;-64
2022/09/19 14:18:11;;;;;;;0.63;0.60;;;;;;;;;;5073560;28;20039;-66
2022/09/19 14:20:55;;;;;;;1.10;0.80;;;;;;;;;;5074914;28;20024;-66
2022/09/19 14:23:32;;;;;;;1.37;0.90;;;;;;;;;;5073574;28;20103;-64
2022/09/19 14:26:18;;;;;;;5.07;1.17;;;;;;;;;;5085451;28;20028;-64
2022/09/19 14:28:57;;;;;;;2.03;1.53;;;;;;;;;;5088342;28;20064;-64
2022/09/19 14:31:43;;;;;;;2.53;1.70;;;;;;;;;;5088861;28;20020;-64
2022/09/19 14:34:31;;;;;;;2.57;0.77;;;;;;;;;;5078124;28;20033;-65
2022/09/19 14:37:20;;;;;;;0.90;0.77;;;;;;;;;;5069734;28;20017;-64
2022/09/19 14:39:48;;;;;;;2.83;1.90;;;;;;;;;;5088803;28;20024;-64
2022/09/19 14:42:40;;;;;;;3.67;2.30;;;;;;;;;;5093760;28;20035;-64
2022/09/19 14:45:10;;;;;;;5.13;2.73;;;;;;;;;;5077989;28;20350;-64
2022/09/19 14:47:52;;;;;;;5.67;3.37;;;;;;;;;;5093511;28;20398;-64
2022/09/19 14:50:18;;;;;;;4.20;3.00;;;;;;;;;;5089602;28;20028;-64
2022/09/19 14:52:54;;;;;;;4.87;2.73;;;;;;;;;;5074924;28;20050;-64
2022/09/19 14:55:22;;;;;;;3.70;2.83;;;;;;;;;;5075635;28;20056;-65
2022/09/19 14:57:50;;;;;;;2.47;1.53;;;;;;;;;;5074446;28;20471;-66
2022/09/19 15:00:23;;;;;;;1.00;0.90;;;;;;;;;;5071364;28;20390;-64
2022/09/19 15:02:51;;;;;;;2.37;1.40;;;;;;;;;;5073178;28;20052;-64
2022/09/19 15:05:20;;;;;;;1.33;1.00;;;;;;;;;;5081455;28;20027;-65
2022/09/19 15:07:47;;;;;;;3.90;1.40;;;;;;;;;;5093765;28;20402;-64
2022/09/19 15:10:34;;;;;;;4.33;1.60;;;;;;;;;;5092776;28;20386;-64
2022/09/19 15:13:16;;;;;;;2.80;1.70;;;;;;;;;;5088282;28;20822;-65
2022/09/19 15:15:45;;;;;;;2.73;1.43;;;;;;;;;;5079395;28;20055;-65
2022/09/19 15:18:32;;;;;;;7.80;4.73;;;;;;;;;;5067115;28;20055;-65
2022/09/19 15:21:03;;;;;;;8.50;2.33;;;;;;;;;;5067423;28;20017;-64
2022/09/19 15:23:32;;;;;;;3.47;2.33;;;;;;;;;;5090208;28;20048;-66
2022/09/19 15:26:03;;;;;;;3.30;1.37;;;;;;;;;;5082480;28;20028;-65
2022/09/19 15:28:35;;;;;;;2.23;1.40;;;;;;;;;;5072039;28;20028;-65
2022/09/19 15:31:02;;;;;;;1.70;1.07;;;;;;;;;;5072632;28;20033;-65
2022/09/19 15:33:29;;;;;;;1.93;1.43;;;;;;;;;;5076445;28;20474;-65
2022/09/19 15:35:58;;;;;;;1.63;0.90;;;;;;;;;;5077923;28;20020;-65
2022/09/19 15:38:32;;;;;;;2.30;1.07;;;;;;;;;;5066934;28;20032;-65
2022/09/19 15:41:04;;;;;;;2.47;0.57;;;;;;;;;;5081851;28;20051;-65
2022/09/19 15:43:32;;;;;;;0.97;0.67;;;;;;;;;;5073522;28;20031;-64
2022/09/19 15:46:01;;;;;;;13.17;1.10;;;;;;;;;;5082915;28;20064;-65
2022/09/19 15:48:34;;;;;;;0.60;0.50;;;;;;;;;;5076449;28;20034;-65
2022/09/19 15:51:05;;;;;;;2.50;1.00;;;;;;;;;;5092757;28;20055;-65
2022/09/19 15:53:32;;;;;;;1.33;1.03;;;;;;;;;;5078760;28;20021;-65
2022/09/19 15:56:04;;;;;;;0.60;0.50;;;;;;;;;;5084346;28;20036;-66